Time;durP1;ratioP1;P1;durP2;ratioP2;P2;SDS_P1;SDS_P2;PMS_P1;PMS_P2;Temp;Humidity;BMP_temperature;BMP_pressure;BME280_temperature;BME280_humidity;BME280_pressure;Samples;Min_cycle;Max_cycle;Signal;HPM_P1;HPM_P2
2023/10/10 00:00:54;;;;;;;9.43;7.40;;;16.00;99.90;;;;;;5037699;28;20384;-75
2023/10/10 00:03:21;;;;;;;12.32;8.68;;;16.00;99.90;;;;;;5028349;28;20111;-75
2023/10/10 00:05:48;;;;;;;9.05;6.85;;;16.00;99.90;;;;;;5039751;28;20033;-75
2023/10/10 00:08:16;;;;;;;10.30;8.93;;;16.00;99.90;;;;;;5038423;28;20060;-75
2023/10/10 00:10:51;;;;;;;11.57;7.65;;;16.00;99.90;;;;;;5034482;28;20052;-75
2023/10/10 00:13:17;;;;;;;12.93;8.68;;;16.00;99.90;;;;;;5019190;28;20820;-75
2023/10/10 00:15:49;;;;;;;17.60;11.88;;;16.00;99.90;;;;;;5036884;28;20128;-75
2023/10/10 00:18:19;;;;;;;9.35;8.32;;;16.00;99.90;;;;;;5039772;28;20068;-75
2023/10/10 00:21:07;;;;;;;12.30;8.40;;;16.00;99.90;;;;;;5022851;28;20506;-74
2023/10/10 00:23:47;;;;;;;11.57;8.02;;;16.00;99.90;;;;;;5034295;28;20532;-75
2023/10/10 00:26:19;;;;;;;10.38;9.30;;;16.00;99.90;;;;;;5038619;28;20091;-75
2023/10/10 00:28:51;;;;;;;11.20;9.05;;;16.00;99.90;;;;;;5042273;28;20049;-75
2023/10/10 00:31:18;;;;;;;11.20;7.97;;;16.00;99.90;;;;;;5016912;28;20045;-75
2023/10/10 00:33:45;;;;;;;12.13;9.80;;;15.90;99.90;;;;;;5026639;28;20056;-75
2023/10/10 00:36:21;;;;;;;15.65;9.38;;;15.90;99.90;;;;;;5028773;28;20499;-75
2023/10/10 00:38:49;;;;;;;15.43;11.07;;;15.90;99.90;;;;;;5042688;28;20127;-75
2023/10/10 00:41:18;;;;;;;10.98;8.13;;;16.00;99.90;;;;;;5039064;28;20049;-75
2023/10/10 00:43:44;;;;;;;11.10;8.52;;;15.90;99.90;;;;;;5027055;28;20458;-75
2023/10/10 00:46:11;;;;;;;13.85;9.55;;;15.90;99.90;;;;;;5039689;28;20139;-75
2023/10/10 00:48:40;;;;;;;14.30;9.57;;;15.90;99.90;;;;;;5041755;28;20552;-75
2023/10/10 00:51:11;;;;;;;11.88;8.77;;;15.90;99.90;;;;;;5026020;28;20532;-75
2023/10/10 00:53:41;;;;;;;12.70;9.68;;;15.90;99.90;;;;;;5027221;28;20132;-75
2023/10/10 00:56:07;;;;;;;12.75;9.80;;;15.90;99.90;;;;;;5034818;28;20046;-75
2023/10/10 00:58:37;;;;;;;13.48;9.65;;;15.90;99.90;;;;;;5022158;28;20795;-75
2023/10/10 01:01:10;;;;;;;9.95;8.63;;;15.90;99.90;;;;;;5026451;28;20149;-75
2023/10/10 01:03:39;;;;;;;14.02;11.95;;;15.90;99.90;;;;;;5038640;28;20136;-75
2023/10/10 01:06:20;;;;;;;13.93;10.10;;;15.90;99.90;;;;;;5042093;28;20033;-75
2023/10/10 01:08:55;;;;;;;11.60;9.82;;;15.90;99.90;;;;;;5036721;28;20049;-75
2023/10/10 01:11:22;;;;;;;11.73;10.52;;;15.90;99.90;;;;;;5036041;28;20503;-75
2023/10/10 01:13:52;;;;;;;13.23;10.65;;;15.90;99.90;;;;;;5028896;28;20045;-75
2023/10/10 01:16:24;;;;;;;14.05;10.02;;;15.90;99.90;;;;;;5029014;28;20045;-75
2023/10/10 01:18:57;;;;;;;15.05;10.45;;;15.80;99.90;;;;;;5040266;28;20040;-75
2023/10/10 01:21:31;;;;;;;13.57;11.13;;;15.80;99.90;;;;;;5024660;28;20451;-75
2023/10/10 01:24:07;;;;;;;14.80;12.18;;;15.80;99.90;;;;;;5025351;28;20053;-75
2023/10/10 01:26:36;;;;;;;16.60;11.65;;;15.80;99.90;;;;;;5042248;28;20056;-75
2023/10/10 01:29:25;;;;;;;13.80;10.73;;;15.80;99.90;;;;;;5026065;28;20041;-75
2023/10/10 01:31:52;;;;;;;12.95;9.65;;;15.80;99.90;;;;;;5027369;28;20033;-75
2023/10/10 01:34:31;;;;;;;12.68;10.40;;;15.80;99.90;;;;;;5024601;28;20403;-75
2023/10/10 01:37:07;;;;;;;15.82;11.68;;;15.80;99.90;;;;;;5020529;28;20041;-75
2023/10/10 01:40:17;;;;;;;11.30;10.10;;;15.80;99.90;;;;;;5039283;28;20053;-75
2023/10/10 01:42:59;;;;;;;13.45;10.50;;;15.80;99.90;;;;;;5034610;28;20107;-75
2023/10/10 01:45:29;;;;;;;13.57;10.27;;;15.70;99.90;;;;;;5026871;28;20045;-75
2023/10/10 01:48:02;;;;;;;15.95;11.52;;;15.70;99.90;;;;;;5037298;28;20064;-75
2023/10/10 01:50:30;;;;;;;14.55;10.85;;;15.70;99.90;;;;;;5020946;28;20216;-75
2023/10/10 01:52:57;;;;;;;14.10;12.27;;;15.70;99.90;;;;;;5027061;28;20126;-75
2023/10/10 01:55:26;;;;;;;15.25;11.23;;;15.70;99.90;;;;;;5026156;28;20064;-75
2023/10/10 01:58:01;;;;;;;12.23;9.63;;;15.70;99.90;;;;;;5026219;28;20033;-75
2023/10/10 02:00:27;;;;;;;16.50;11.55;;;15.70;99.90;;;;;;5024819;28;20063;-75
2023/10/10 02:02:56;;;;;;;13.88;10.70;;;15.70;99.90;;;;;;5027988;28;20037;-75
2023/10/10 02:08:22;;;;;;;11.25;10.07;;;15.70;99.90;;;;;;5036539;28;20056;-75
2023/10/10 02:10:49;;;;;;;13.55;9.65;;;15.70;99.90;;;;;;5036516;28;20404;-75
2023/10/10 02:13:17;;;;;;;13.35;9.88;;;15.70;99.90;;;;;;5039872;28;20120;-75
2023/10/10 02:15:42;;;;;;;12.15;9.52;;;15.70;99.90;;;;;;5038419;28;20041;-75
2023/10/10 02:18:23;;;;;;;16.35;9.70;;;15.70;99.90;;;;;;5044141;28;20037;-75
2023/10/10 02:23:31;;;;;;;12.50;10.07;;;15.70;99.90;;;;;;5042611;28;20052;-75
2023/10/10 02:26:14;;;;;;;12.98;8.55;;;15.70;99.90;;;;;;5036991;28;20111;-75
2023/10/10 02:28:44;;;;;;;13.43;9.68;;;15.70;99.90;;;;;;5041714;28;20451;-75
2023/10/10 02:31:12;;;;;;;;;;;15.70;99.90;;;;;;5037267;28;20041;-75
2023/10/10 02:33:37;;;;;;;10.45;7.72;;;15.70;99.90;;;;;;5013262;28;20370;-75
2023/10/10 02:36:13;;;;;;;12.52;8.73;;;15.60;99.90;;;;;;5038537;28;20033;-75
2023/10/10 02:38:39;;;;;;;11.75;8.27;;;15.60;99.90;;;;;;5040828;28;20080;-75
2023/10/10 02:43:56;;;;;;;9.63;7.63;;;15.60;99.90;;;;;;5039732;28;20059;-75
2023/10/10 02:46:34;;;;;;;10.23;7.63;;;15.60;99.90;;;;;;5041085;28;20072;-75
2023/10/10 02:49:12;;;;;;;10.65;7.30;;;15.60;99.90;;;;;;5037708;28;20124;-75
2023/10/10 02:51:48;;;;;;;12.13;8.40;;;15.60;99.90;;;;;;5023414;28;20048;-75
2023/10/10 03:00:15;;;;;;;8.50;7.60;;;15.50;99.90;;;;;;5041230;28;20380;-75
2023/10/10 03:02:53;;;;;;;;;;;15.50;99.90;;;;;;5040045;28;20052;-75
2023/10/10 03:05:39;;;;;;;13.52;9.73;;;15.40;99.90;;;;;;5048802;28;19943;-75
2023/10/10 03:11:00;;;;;;;11.02;9.85;;;15.50;99.90;;;;;;5038617;28;20045;-75
2023/10/10 03:25:03;;;;;;;10.82;9.68;;;15.40;99.90;;;;;;5037983;28;20084;-75
2023/10/10 03:29:37;;;;;;;12.10;10.35;;;15.30;99.90;;;;;;5040906;28;20060;-75
2023/10/10 03:32:19;;;;;;;12.30;9.55;;;15.30;99.90;;;;;;5042798;28;20053;-75
2023/10/10 03:34:55;;;;;;;12.55;10.75;;;15.30;99.90;;;;;;5040781;28;20045;-74
2023/10/10 03:39:55;;;;;;;14.13;11.82;;;15.20;99.90;;;;;;5039628;28;20057;-75
2023/10/10 05:24:17;;;;;;;32.67;28.67;;;15.40;99.90;;;;;;5053485;28;20048;-75
2023/10/10 05:26:46;;;;;;;34.83;30.90;;;15.40;99.90;;;;;;5037236;28;20061;-75
2023/10/10 05:29:13;;;;;;;34.00;28.63;;;15.40;99.90;;;;;;5037804;28;20040;-75
2023/10/10 05:31:39;;;;;;;31.92;26.42;;;15.40;99.90;;;;;;5037784;28;20048;-76
2023/10/10 05:34:07;;;;;;;32.05;27.48;;;15.40;99.90;;;;;;5025230;28;20033;-76
2023/10/10 05:36:34;;;;;;;33.40;28.27;;;15.30;99.90;;;;;;5039270;28;20053;-75
2023/10/10 05:39:00;;;;;;;35.78;28.90;;;15.30;99.90;;;;;;5059426;28;20048;-76
2023/10/10 05:41:27;;;;;;;33.25;27.65;;;15.30;99.90;;;;;;5040332;28;20057;-76
2023/10/10 05:43:56;;;;;;;32.70;27.58;;;15.30;99.90;;;;;;5039067;28;20577;-76
2023/10/10 05:46:22;;;;;;;34.83;27.80;;;15.30;99.90;;;;;;5037700;28;20110;-75
2023/10/10 05:48:47;;;;;;;42.20;30.75;;;15.30;99.90;;;;;;5041946;28;20491;-75
2023/10/10 05:51:13;;;;;;;36.42;27.95;;;15.20;99.90;;;;;;5022476;28;20033;-76
2023/10/10 05:53:40;;;;;;;41.00;30.27;;;15.20;99.90;;;;;;5027892;28;20053;-76
2023/10/10 05:56:16;;;;;;;33.00;27.63;;;15.20;99.90;;;;;;5021840;28;20040;-75
2023/10/10 05:58:46;;;;;;;40.38;29.77;;;15.20;99.90;;;;;;5039582;28;20395;-76
2023/10/10 06:01:14;;;;;;;30.80;26.17;;;15.20;99.90;;;;;;5035231;28;20693;-75
2023/10/10 06:03:41;;;;;;;29.65;25.90;;;15.20;99.90;;;;;;5024897;28;20483;-77
2023/10/10 06:06:12;;;;;;;35.47;29.35;;;15.10;99.90;;;;;;5023901;28;20503;-77
2023/10/10 06:08:38;;;;;;;36.83;29.65;;;15.10;99.90;;;;;;5017027;28;20045;-77
2023/10/10 06:11:06;;;;;;;32.35;27.83;;;15.10;99.90;;;;;;5041889;28;20477;-77
2023/10/10 06:13:36;;;;;;;42.25;31.20;;;15.10;99.90;;;;;;5038570;28;20139;-77
2023/10/10 06:16:14;;;;;;;36.55;28.60;;;15.10;99.90;;;;;;5023049;28;20120;-79
2023/10/10 06:18:45;;;;;;;42.58;32.33;;;15.10;99.90;;;;;;5042119;28;20077;-77
2023/10/10 06:21:11;;;;;;;39.95;29.90;;;15.10;99.90;;;;;;5046221;28;20092;-77
2023/10/10 06:23:37;;;;;;;39.78;30.65;;;15.10;99.90;;;;;;5041931;28;20079;-77
2023/10/10 06:26:06;;;;;;;38.80;30.23;;;15.20;99.90;;;;;;5019850;28;20094;-76
2023/10/10 06:28:47;;;;;;;41.20;30.35;;;15.20;99.90;;;;;;5025206;28;20143;-77
2023/10/10 06:31:20;;;;;;;45.92;35.22;;;15.20;99.90;;;;;;5025371;28;20040;-77
2023/10/10 06:33:49;;;;;;;35.88;27.90;;;15.20;99.90;;;;;;5022541;28;20132;-77
2023/10/10 06:41:42;;;;;;;40.83;32.75;;;15.30;99.90;;;;;;5037549;28;20124;-77
2023/10/10 06:44:13;;;;;;;37.08;29.45;;;15.30;99.90;;;;;;5025168;28;20114;-77
2023/10/10 06:46:40;;;;;;;;;;;15.30;99.90;;;;;;5040387;28;20047;-77
2023/10/10 06:49:07;;;;;;;37.80;30.58;;;15.40;99.90;;;;;;5026593;28;19983;-77
2023/10/10 06:51:39;;;;;;;40.90;34.17;;;15.40;99.90;;;;;;5037230;28;20037;-77
2023/10/10 06:54:19;;;;;;;36.38;30.58;;;15.40;99.90;;;;;;5041055;28;20515;-77
2023/10/10 06:57:57;;;;;;;37.35;31.40;;;15.40;99.90;;;;;;5038120;28;20053;-77
2023/10/10 06:59:41;;;;;;;42.83;32.80;;;15.50;99.90;;;;;;5027702;28;20053;-77
2023/10/10 07:02:19;;;;;;;39.80;32.35;;;15.50;99.90;;;;;;5040846;28;20550;-77
2023/10/10 07:04:52;;;;;;;46.60;36.00;;;15.50;99.90;;;;;;5032758;28;20481;-77
2023/10/10 07:07:21;;;;;;;54.13;41.35;;;15.50;99.90;;;;;;5039978;28;20276;-77
2023/10/10 07:09:48;;;;;;;47.28;39.95;;;15.60;99.90;;;;;;5037936;28;20191;-77
2023/10/10 07:12:16;;;;;;;47.13;38.53;;;15.60;99.90;;;;;;5022514;28;20033;-77
2023/10/10 07:14:53;;;;;;;45.42;38.35;;;15.60;99.90;;;;;;5024447;28;20192;-77
2023/10/10 07:17:26;;;;;;;50.08;39.78;;;15.70;99.90;;;;;;5021240;28;20044;-77
2023/10/10 07:22:36;;;;;;;49.22;40.88;;;15.60;99.90;;;;;;5036436;28;20441;-76
2023/10/10 07:25:43;;;;;;;52.63;41.40;;;15.70;99.90;;;;;;5024132;28;20049;-77
2023/10/10 07:28:00;;;;;;;51.58;41.97;;;15.70;99.90;;;;;;5039530;28;20384;-77
2023/10/10 07:30:34;;;;;;;47.53;41.17;;;15.70;99.90;;;;;;5023602;28;20049;-77
2023/10/10 07:33:03;;;;;;;48.03;41.03;;;15.70;99.90;;;;;;5031185;28;20055;-77
2023/10/10 07:35:35;;;;;;;45.92;39.33;;;15.80;99.90;;;;;;5042609;28;20083;-76
2023/10/10 07:38:01;;;;;;;48.40;40.00;;;15.80;99.90;;;;;;5041767;28;20053;-76
2023/10/10 07:40:31;;;;;;;53.53;44.28;;;15.90;99.90;;;;;;5030383;28;20406;-76
2023/10/10 07:43:03;;;;;;;49.97;42.03;;;15.90;99.90;;;;;;5029419;28;20118;-76
2023/10/10 07:45:43;;;;;;;51.03;43.72;;;15.90;99.90;;;;;;5039803;28;20303;-77
2023/10/10 07:50:46;;;;;;;60.15;50.25;;;16.00;99.90;;;;;;5037992;28;20048;-77
2023/10/10 07:53:13;;;;;;;67.95;54.17;;;16.10;99.90;;;;;;5028970;28;20406;-77
2023/10/10 07:58:23;;;;;;;75.45;57.85;;;16.20;99.90;;;;;;5047569;28;20057;-77
2023/10/10 08:00:53;;;;;;;83.75;62.33;;;16.20;99.90;;;;;;5042188;28;20056;-77
2023/10/10 08:03:19;;;;;;;;;;;16.30;99.90;;;;;;5046936;28;20048;-77
2023/10/10 08:05:50;;;;;;;81.65;60.60;;;16.20;99.90;;;;;;5041712;28;19921;-76
2023/10/10 08:08:19;;;;;;;82.53;61.13;;;16.20;99.90;;;;;;5028300;28;20501;-77
2023/10/10 08:10:49;;;;;;;78.57;58.80;;;16.20;99.90;;;;;;5042237;28;20132;-77
2023/10/10 08:13:16;;;;;;;75.68;58.33;;;16.20;99.90;;;;;;5043188;28;20406;-76
2023/10/10 08:21:26;;;;;;;71.57;55.70;;;16.30;99.90;;;;;;4967592;28;20046;-77
2023/10/10 08:23:58;;;;;;;75.60;56.17;;;16.40;99.90;;;;;;5027779;28;20048;-77
2023/10/10 08:26:29;;;;;;;77.57;57.08;;;16.40;99.90;;;;;;5039152;28;20584;-77
2023/10/10 08:28:55;;;;;;;76.82;57.38;;;16.50;99.90;;;;;;5044794;28;20041;-76
2023/10/10 08:31:24;;;;;;;69.50;54.35;;;16.50;99.90;;;;;;5041752;28;20037;-77
2023/10/10 08:33:50;;;;;;;71.43;56.40;;;16.60;99.90;;;;;;5028720;28;20410;-77
2023/10/10 08:36:25;;;;;;;68.22;53.20;;;16.60;99.90;;;;;;5023852;28;20295;-77
2023/10/10 08:38:53;;;;;;;69.65;54.83;;;16.60;99.90;;;;;;5041130;28;20041;-77
2023/10/10 08:41:22;;;;;;;70.80;56.92;;;16.60;99.90;;;;;;5030980;28;20096;-75
2023/10/10 08:43:53;;;;;;;66.43;54.63;;;16.70;99.90;;;;;;5043258;28;20051;-75
2023/10/10 08:46:29;;;;;;;65.38;52.05;;;16.70;99.90;;;;;;5041555;28;20487;-76
2023/10/10 08:48:58;;;;;;;67.47;53.42;;;16.70;99.90;;;;;;5027889;28;20388;-76
2023/10/10 08:51:33;;;;;;;68.18;54.45;;;16.80;99.90;;;;;;5024748;28;21040;-76
2023/10/10 08:54:11;;;;;;;66.45;52.08;;;16.90;99.90;;;;;;5029484;28;20052;-76
2023/10/10 08:56:59;;;;;;;63.67;52.05;;;17.00;99.90;;;;;;5028051;28;20073;-76
2023/10/10 08:59:28;;;;;;;63.33;51.72;;;17.10;99.90;;;;;;5040283;28;20502;-76
2023/10/10 09:02:20;;;;;;;61.00;51.05;;;17.10;99.90;;;;;;5038893;28;20150;-76
2023/10/10 09:04:46;;;;;;;66.13;52.30;;;17.10;99.90;;;;;;5026249;28;20049;-76
2023/10/10 09:07:27;;;;;;;65.95;52.15;;;17.10;99.90;;;;;;5045606;28;20106;-76
2023/10/10 09:10:05;;;;;;;60.55;49.53;;;17.10;99.90;;;;;;5039122;28;20374;-76
2023/10/10 09:12:52;;;;;;;64.03;50.50;;;17.10;99.90;;;;;;5039619;28;20092;-76
2023/10/10 09:15:19;;;;;;;64.93;51.63;;;17.10;99.90;;;;;;5043439;28;20079;-76
2023/10/10 09:17:46;;;;;;;63.63;52.47;;;17.10;99.90;;;;;;5038626;28;20049;-76
2023/10/10 09:20:32;;;;;;;69.30;54.25;;;17.20;99.90;;;;;;5026892;28;20061;-76
2023/10/10 09:23:11;;;;;;;61.35;52.22;;;17.30;99.90;;;;;;5039506;28;20049;-76
2023/10/10 09:25:57;;;;;;;59.17;50.47;;;17.40;99.90;;;;;;5039706;28;20472;-76
2023/10/10 09:28:30;;;;;;;61.25;51.00;;;17.50;99.90;;;;;;5030071;28;20088;-77
2023/10/10 09:31:03;;;;;;;65.07;54.55;;;17.60;99.90;;;;;;5041519;28;20052;-75
2023/10/10 09:36:20;;;;;;;62.00;52.30;;;17.60;99.90;;;;;;5037608;28;20045;-76
2023/10/10 09:38:54;;;;;;;60.38;49.08;;;17.70;99.90;;;;;;5024667;28;20063;-76
2023/10/10 09:41:36;;;;;;;62.78;52.97;;;17.80;99.90;;;;;;5036218;28;20041;-76
2023/10/10 09:50:28;;;;;;;56.08;49.35;;;18.00;99.90;;;;;;5040662;28;20051;-77
2023/10/10 09:57:42;;;;;;;57.22;49.38;;;18.20;99.90;;;;;;5039217;28;20546;-76
2023/10/10 10:00:30;;;;;;;55.15;47.85;;;18.20;99.90;;;;;;5022588;28;20102;-76
2023/10/10 10:03:00;;;;;;;53.10;46.35;;;18.30;99.90;;;;;;5039548;28;20048;-77
2023/10/10 10:05:28;;;;;;;49.17;42.80;;;18.40;99.90;;;;;;5025031;28;20041;-77
2023/10/10 10:08:13;;;;;;;49.53;42.00;;;18.50;99.90;;;;;;5022906;28;20060;-76
2023/10/10 10:11:11;;;;;;;49.83;40.35;;;18.50;99.90;;;;;;5042476;28;20199;-76
2023/10/10 10:14:17;;;;;;;48.83;38.55;;;18.60;99.90;;;;;;5019982;28;20573;-77
2023/10/10 10:16:51;;;;;;;48.25;38.92;;;18.60;99.90;;;;;;5040845;28;20048;-77
2023/10/10 10:19:22;;;;;;;46.35;40.38;;;18.60;99.90;;;;;;5038149;28;20045;-76
2023/10/10 10:21:53;;;;;;;43.15;37.10;;;18.70;99.90;;;;;;5023722;28;20033;-77
2023/10/10 10:24:44;;;;;;;41.72;36.05;;;18.80;99.90;;;;;;5039178;28;20218;-77
2023/10/10 10:27:39;;;;;;;44.88;37.25;;;18.80;99.90;;;;;;5039705;28;20056;-77
2023/10/10 10:32:46;;;;;;;42.97;37.83;;;18.90;99.90;;;;;;5035562;28;20120;-76
2023/10/10 10:35:23;;;;;;;43.97;37.17;;;19.00;99.90;;;;;;5023076;28;20298;-77
2023/10/10 10:37:58;;;;;;;37.13;32.78;;;19.00;99.90;;;;;;5021131;28;20061;-77
2023/10/10 10:43:16;;;;;;;36.50;32.08;;;19.10;99.90;;;;;;5045346;28;20583;-76
2023/10/10 10:45:51;;;;;;;34.70;30.92;;;19.30;99.90;;;;;;5040796;28;20064;-76
2023/10/10 10:48:34;;;;;;;34.40;29.08;;;19.40;99.90;;;;;;5025439;28;20072;-76
2023/10/10 10:51:22;;;;;;;33.42;29.33;;;19.50;99.90;;;;;;5039437;28;20056;-77
2023/10/10 10:53:58;;;;;;;34.20;29.33;;;19.60;99.90;;;;;;5033167;28;20519;-77
2023/10/10 10:59:20;;;;;;;31.52;27.42;;;19.70;99.90;;;;;;5039655;28;20044;-76
2023/10/10 11:01:57;;;;;;;34.88;29.67;;;19.80;99.90;;;;;;5032808;28;20847;-76
2023/10/10 11:07:03;;;;;;;33.95;28.67;;;19.80;99.90;;;;;;5039774;28;20041;-76
2023/10/10 11:09:30;;;;;;;31.55;26.23;;;19.80;99.90;;;;;;5042424;28;20384;-76
2023/10/10 11:12:05;;;;;;;32.65;28.38;;;19.80;99.90;;;;;;5039643;28;20033;-77
2023/10/10 11:14:45;;;;;;;33.83;29.15;;;19.80;99.90;;;;;;5017539;28;20055;-77
2023/10/10 11:17:19;;;;;;;32.80;27.80;;;19.80;99.90;;;;;;5041198;28;20040;-76
2023/10/10 11:19:54;;;;;;;30.88;27.58;;;19.80;99.90;;;;;;5036095;28;20037;-76
2023/10/10 11:22:39;;;;;;;34.50;27.05;;;19.80;99.90;;;;;;5025425;28;20049;-76
2023/10/10 11:25:11;;;;;;;33.72;27.00;;;19.80;99.90;;;;;;5022282;28;20100;-76
2023/10/10 11:27:43;;;;;;;35.67;31.85;;;19.80;99.90;;;;;;5028548;28;20048;-76
2023/10/10 11:30:11;;;;;;;32.08;28.55;;;19.80;99.90;;;;;;5036142;28;20098;-76
2023/10/10 11:32:48;;;;;;;33.47;28.52;;;19.90;99.90;;;;;;5041757;28;20041;-76
2023/10/10 11:35:25;;;;;;;32.15;28.20;;;19.90;99.90;;;;;;5021567;28;20077;-77
2023/10/10 11:38:05;;;;;;;30.95;27.63;;;20.00;99.90;;;;;;5020697;28;20438;-76
2023/10/10 11:40:32;;;;;;;32.00;28.40;;;20.20;99.90;;;;;;5024498;28;20499;-76
2023/10/10 11:42:59;;;;;;;35.08;30.95;;;20.20;99.90;;;;;;5026004;28;20076;-76
2023/10/10 11:45:26;;;;;;;33.08;28.60;;;20.30;99.90;;;;;;5033889;28;20053;-76
2023/10/10 11:47:52;;;;;;;30.45;26.98;;;20.30;99.90;;;;;;5023498;28;20454;-76
2023/10/10 11:50:27;;;;;;;32.58;27.60;;;20.30;99.90;;;;;;5024905;28;20037;-75
2023/10/10 11:52:58;;;;;;;32.17;27.95;;;20.30;99.90;;;;;;5034076;28;21788;-76
2023/10/10 11:55:34;;;;;;;29.02;25.90;;;20.30;99.90;;;;;;5038030;28;20055;-75
2023/10/10 11:58:16;;;;;;;31.77;25.15;;;20.20;99.90;;;;;;5020801;28;20093;-76
2023/10/10 12:00:48;;;;;;;27.90;24.27;;;20.30;99.90;;;;;;5039679;28;20414;-76
2023/10/10 12:06:13;;;;;;;25.17;20.73;;;20.30;99.90;;;;;;5056049;28;20106;-75
2023/10/10 12:08:45;;;;;;;22.42;19.88;;;20.20;99.90;;;;;;5038037;28;20246;-76
2023/10/10 12:11:12;;;;;;;23.58;21.00;;;20.20;99.90;;;;;;5026355;28;20056;-76
2023/10/10 12:13:38;;;;;;;25.30;21.67;;;20.20;99.90;;;;;;5037987;28;20048;-76
2023/10/10 12:16:12;;;;;;;28.20;23.05;;;20.30;99.90;;;;;;5024854;28;20037;-76
2023/10/10 12:18:49;;;;;;;23.48;20.25;;;20.20;99.90;;;;;;5038823;28;20068;-76
2023/10/10 12:21:23;;;;;;;26.33;22.83;;;20.20;99.90;;;;;;5058169;28;20426;-76
2023/10/10 12:23:52;;;;;;;25.30;22.27;;;20.20;99.90;;;;;;5026641;28;20072;-76
2023/10/10 12:26:18;;;;;;;25.90;22.10;;;20.20;99.90;;;;;;5039710;28;20047;-76
2023/10/10 12:28:48;;;;;;;27.52;22.25;;;20.20;99.90;;;;;;5021691;28;20148;-76
2023/10/10 12:31:17;;;;;;;25.10;22.40;;;20.30;99.90;;;;;;5020291;28;20036;-75
2023/10/10 12:33:48;;;;;;;26.83;23.92;;;20.40;99.90;;;;;;5029977;28;20053;-76
2023/10/10 12:36:17;;;;;;;30.48;24.88;;;20.50;99.90;;;;;;5027533;28;20068;-76
2023/10/10 12:38:44;;;;;;;27.38;24.30;;;20.50;99.90;;;;;;5044775;28;20131;-76
2023/10/10 12:41:11;;;;;;;26.40;22.35;;;20.60;99.90;;;;;;5041374;28;20119;-76
2023/10/10 12:43:37;;;;;;;26.48;23.02;;;20.60;99.90;;;;;;5045274;28;20120;-76
2023/10/10 12:46:06;;;;;;;29.55;23.02;;;20.60;99.90;;;;;;5029872;28;20490;-75
2023/10/10 12:48:39;;;;;;;26.35;23.00;;;20.60;99.90;;;;;;5042612;28;20053;-78
2023/10/10 12:51:09;;;;;;;27.38;23.67;;;20.50;99.90;;;;;;5030026;28;20431;-76
2023/10/10 12:53:39;;;;;;;29.88;24.33;;;20.30;99.90;;;;;;5039833;28;20053;-76
2023/10/10 12:56:06;;;;;;;27.08;23.42;;;20.20;99.90;;;;;;5042338;28;20463;-75
2023/10/10 12:58:32;;;;;;;25.33;22.45;;;20.10;99.90;;;;;;5022689;28;20100;-76
2023/10/10 13:00:58;;;;;;;28.30;25.40;;;20.00;99.90;;;;;;5028954;28;20124;-75
2023/10/10 13:03:30;;;;;;;26.38;23.58;;;20.00;99.90;;;;;;5042332;28;20045;-76
2023/10/10 13:06:00;;;;;;;24.73;22.20;;;20.00;99.90;;;;;;5030145;28;20419;-76
2023/10/10 13:08:47;;;;;;;28.50;22.60;;;20.00;99.90;;;;;;5025857;28;20041;-76
2023/10/10 13:11:32;;;;;;;31.20;24.67;;;20.10;99.90;;;;;;5058895;28;20403;-76
2023/10/10 13:14:08;;;;;;;27.15;22.45;;;20.00;99.90;;;;;;5028025;28;20128;-76
2023/10/10 13:19:11;;;;;;;26.30;22.42;;;20.00;99.90;;;;;;5059238;28;20052;-76
2023/10/10 13:21:42;;;;;;;25.83;22.85;;;20.00;99.90;;;;;;5041734;28;20040;-76
2023/10/10 13:24:13;;;;;;;25.38;21.23;;;20.00;99.90;;;;;;5022744;28;20040;-75
2023/10/10 13:26:40;;;;;;;27.17;24.13;;;20.00;99.90;;;;;;5016419;28;20060;-76
2023/10/10 13:29:07;;;;;;;28.58;24.42;;;19.90;99.90;;;;;;5027426;28;20483;-76
2023/10/10 13:31:33;;;;;;;26.25;22.35;;;20.00;99.90;;;;;;5024465;28;20072;-76
2023/10/10 13:34:00;;;;;;;31.77;23.30;;;19.90;99.90;;;;;;5025453;28;20067;-74
2023/10/10 13:36:26;;;;;;;24.20;21.58;;;19.90;99.90;;;;;;5026922;28;20541;-73
2023/10/10 13:39:05;;;;;;;25.40;22.00;;;20.00;99.90;;;;;;5040061;28;20038;-73
2023/10/10 13:41:35;;;;;;;25.95;22.05;;;20.00;99.90;;;;;;5029307;28;20041;-73
2023/10/10 13:44:03;;;;;;;27.42;20.38;;;20.10;99.90;;;;;;5041211;28;20049;-73
2023/10/10 13:46:34;;;;;;;24.83;22.13;;;20.20;99.90;;;;;;5028213;28;20076;-73
2023/10/10 13:49:03;;;;;;;28.58;21.67;;;20.20;99.90;;;;;;5043065;28;20045;-73
2023/10/10 13:51:37;;;;;;;25.02;22.33;;;20.20;99.90;;;;;;5020531;28;20144;-73
2023/10/10 13:54:04;;;;;;;25.48;22.50;;;20.30;99.90;;;;;;5036779;28;20138;-73
2023/10/10 13:56:30;;;;;;;25.17;22.15;;;20.30;99.90;;;;;;5026252;28;20095;-73
2023/10/10 13:58:57;;;;;;;25.38;21.60;;;20.30;99.90;;;;;;5040795;28;20472;-73
2023/10/10 14:01:29;;;;;;;24.63;21.73;;;20.30;99.90;;;;;;5025683;28;20426;-73
2023/10/10 14:06:47;;;;;;;26.85;23.70;;;20.20;99.90;;;;;;5036433;28;20053;-73
2023/10/10 14:09:22;;;;;;;24.83;20.58;;;20.30;99.90;;;;;;5042094;28;20129;-73
2023/10/10 14:12:02;;;;;;;26.10;21.33;;;20.30;99.90;;;;;;5056021;28;21204;-73
2023/10/10 14:14:28;;;;;;;;;;;20.30;99.90;;;;;;5025776;28;20406;-73
2023/10/10 14:16:54;;;;;;;27.60;22.55;;;20.30;99.90;;;;;;5020516;28;20264;-73
2023/10/10 14:19:25;;;;;;;24.88;21.95;;;20.30;99.90;;;;;;5041819;28;20071;-73
2023/10/10 14:21:54;;;;;;;25.42;21.10;;;20.30;99.90;;;;;;5038665;28;20049;-73
2023/10/10 14:24:21;;;;;;;23.15;19.80;;;20.30;99.90;;;;;;5025309;28;20040;-73
2023/10/10 14:26:48;;;;;;;27.85;21.25;;;20.30;99.90;;;;;;5020984;28;20124;-73
2023/10/10 14:29:14;;;;;;;23.70;20.58;;;20.40;99.90;;;;;;5028572;28;20029;-73
2023/10/10 14:31:44;;;;;;;27.02;22.60;;;20.30;99.90;;;;;;5035404;28;20048;-73
2023/10/10 14:34:20;;;;;;;;;;;20.30;99.90;;;;;;5037789;28;20120;-74
2023/10/10 14:36:48;;;;;;;25.02;22.35;;;20.30;99.90;;;;;;5026595;28;19995;-74
2023/10/10 14:39:29;;;;;;;22.48;19.95;;;20.30;99.90;;;;;;5022957;28;20500;-74
2023/10/10 14:41:59;;;;;;;23.15;20.17;;;20.30;99.90;;;;;;5039167;28;20051;-73
2023/10/10 14:44:28;;;;;;;22.23;19.77;;;20.30;99.90;;;;;;5019771;28;20045;-74
2023/10/10 14:46:54;;;;;;;26.33;21.53;;;20.30;99.90;;;;;;5040473;28;20052;-74
2023/10/10 14:49:28;;;;;;;23.83;20.73;;;20.30;99.90;;;;;;5040982;28;20303;-73
2023/10/10 14:51:56;;;;;;;26.92;21.35;;;20.20;99.90;;;;;;5023595;28;20445;-74
2023/10/10 14:54:23;;;;;;;24.08;20.48;;;20.20;99.90;;;;;;5040185;28;20036;-73
2023/10/10 14:56:53;;;;;;;25.02;20.00;;;20.20;99.90;;;;;;5039566;28;20510;-74
2023/10/10 14:59:42;;;;;;;;;;;20.20;99.90;;;;;;5040628;28;20048;-74
2023/10/10 15:02:06;;;;;;;29.88;22.45;;;20.10;99.90;;;;;;5033052;28;19970;-74
2023/10/10 15:04:33;;;;;;;27.20;22.50;;;20.10;99.90;;;;;;5039344;28;20041;-74
2023/10/10 15:07:00;;;;;;;25.02;21.67;;;20.00;99.90;;;;;;5020533;28;20042;-74
2023/10/10 15:09:26;;;;;;;23.20;20.63;;;20.00;99.90;;;;;;5039422;28;20033;-74
2023/10/10 15:11:59;;;;;;;23.67;20.48;;;20.00;99.90;;;;;;5041207;28;20076;-73
2023/10/10 15:14:25;;;;;;;24.77;19.90;;;20.00;99.90;;;;;;5020949;28;20098;-73
2023/10/10 15:16:51;;;;;;;23.20;20.65;;;19.90;99.90;;;;;;5019194;28;20081;-73
2023/10/10 15:19:18;;;;;;;23.27;19.15;;;19.90;99.90;;;;;;5034513;28;20098;-73
2023/10/10 15:21:48;;;;;;;20.85;18.60;;;19.80;99.90;;;;;;5041559;28;20506;-73
2023/10/10 15:24:15;;;;;;;24.63;19.92;;;19.80;99.90;;;;;;5022769;28;20041;-73
2023/10/10 15:26:47;;;;;;;26.65;20.00;;;19.80;99.90;;;;;;5019879;28;20054;-73
2023/10/10 15:29:16;;;;;;;22.52;19.98;;;19.80;99.90;;;;;;5029066;28;20041;-73
2023/10/10 15:31:42;;;;;;;22.08;19.77;;;19.70;99.90;;;;;;5037911;28;20095;-73
2023/10/10 15:34:13;;;;;;;23.52;19.58;;;19.70;99.90;;;;;;5021310;28;20135;-73
2023/10/10 15:36:49;;;;;;;24.58;20.63;;;19.70;99.90;;;;;;5016948;28;20107;-73
2023/10/10 15:39:15;;;;;;;24.35;20.60;;;19.70;99.90;;;;;;5020377;28;20068;-73
2023/10/10 15:41:42;;;;;;;25.63;19.77;;;19.70;99.90;;;;;;5039705;28;20507;-73
2023/10/10 15:44:09;;;;;;;24.00;19.98;;;19.60;99.90;;;;;;5028548;28;20462;-73
2023/10/10 15:46:37;;;;;;;23.58;20.85;;;19.60;99.90;;;;;;5026304;28;20048;-73
2023/10/10 15:49:09;;;;;;;23.02;19.48;;;19.50;99.90;;;;;;5043875;28;20136;-73
2023/10/10 15:51:38;;;;;;;21.00;18.63;;;19.50;99.90;;;;;;5043724;28;20063;-74
2023/10/10 15:54:08;;;;;;;23.07;18.93;;;19.50;99.90;;;;;;5024836;28;20147;-73
2023/10/10 15:56:34;;;;;;;21.00;17.08;;;19.50;99.90;;;;;;5025850;28;20061;-74
2023/10/10 15:59:01;;;;;;;20.77;16.35;;;19.50;99.90;;;;;;5039740;28;20484;-73
2023/10/10 16:01:31;;;;;;;17.30;15.50;;;19.50;99.90;;;;;;5039530;28;20048;-73